Time;durP1;ratioP1;P1;durP2;ratioP2;P2;SDS_P1;SDS_P2;PMS_P1;PMS_P2;Temp;Humidity;BMP_temperature;BMP_pressure;BME280_temperature;BME280_humidity;BME280_pressure;Samples;Min_cycle;Max_cycle;Signal;HPM_P1;HPM_P2
2023/07/30 00:03:02;;;;;;;9.20;4.30;;;;;;;16.33;78.48;99595.88;126299;1314;116373;-65
2023/07/30 00:06:49;;;;;;;5.80;4.00;;;;;;;16.26;78.42;99604.45;126196;1314;114942;-65
2023/07/30 00:10:50;;;;;;;9.10;5.30;;;;;;;16.19;78.72;99599.22;126258;1292;114958;-66
2023/07/30 00:14:39;;;;;;;;;;;;;;;;;;;;;
2023/07/30 00:18:31;;;;;;;7.10;3.60;;;;;;;16.07;79.00;99602.53;125884;1295;129703;-65
2023/07/30 00:22:33;;;;;;;5.60;3.80;;;;;;;16.01;79.13;99603.59;125433;1314;115253;-65
2023/07/30 00:34:58;;;;;;;4.90;3.00;;;;;;;15.90;79.78;99603.63;126270;1292;636672;-67
2023/07/30 00:43:03;;;;;;;3.60;3.00;;;;;;;15.85;80.45;99619.17;127955;1302;115427;-66
2023/07/30 00:51:07;;;;;;;5.80;3.70;;;;;;;15.78;80.54;99629.95;126260;1298;114903;-64
2023/07/30 01:07:37;;;;;;;6.20;3.00;;;;;;;15.70;81.27;99631.35;125619;1310;636438;-66
2023/07/30 01:11:40;;;;;;;4.90;3.30;;;;;;;15.64;81.11;99631.06;128366;1275;128615;-65
2023/07/30 01:15:31;;;;;;;;;;;;;;;;;;;;;
2023/07/30 01:19:35;;;;;;;11.90;3.90;;;;;;;15.55;81.45;99631.27;123595;1283;5474911;-67
2023/07/30 01:27:36;;;;;;;;;;;;;;;;;;;;;
2023/07/30 01:48:36;;;;;;;5.90;3.10;;;;;;;15.30;82.25;99648.03;128801;1269;115236;-70
2023/07/30 01:56:40;;;;;;;5.80;3.10;;;;;;;15.56;83.67;99650.10;127465;1283;114900;-68
2023/07/30 02:04:36;;;;;;;5.50;3.20;;;;;;;15.37;82.57;99650.73;125800;1300;114975;-68
2023/07/30 02:08:38;;;;;;;4.00;2.80;;;;;;;15.29;82.71;99651.17;125775;1303;129100;-68
2023/07/30 02:12:39;;;;;;;9.00;3.50;;;;;;;15.22;82.67;99655.20;125494;1306;116498;-65
2023/07/30 02:16:43;;;;;;;7.20;3.50;;;;;;;15.14;82.73;99650.33;124987;1306;115653;-67
2023/07/30 02:25:10;;;;;;;4.90;2.80;;;;;;;15.06;82.83;99650.67;125924;1300;637243;-66
2023/07/30 02:29:13;;;;;;;8.50;3.00;;;;;;;14.98;83.13;99658.80;128384;1275;128393;-66
2023/07/30 02:37:18;;;;;;;6.30;4.00;;;;;;;14.91;83.32;99664.05;123656;1283;5448433;-64
2023/07/30 02:41:05;;;;;;;;;;;;;;;14.87;83.42;99670.64;127088;1289;114885;-67
2023/07/30 02:45:07;;;;;;;11.70;4.60;;;;;;;14.84;83.67;99675.89;127184;1308;114918;-66
2023/07/30 02:53:13;;;;;;;5.90;3.60;;;;;;;14.79;83.85;99672.84;126193;1298;129707;-68
2023/07/30 02:56:56;;;;;;;;;;;;;;;;;;;;;
2023/07/30 03:00:59;;;;;;;6.60;3.50;;;;;;;14.74;84.06;99675.05;125214;1307;114917;-66
2023/07/30 03:05:00;;;;;;;6.20;3.40;;;;;;;14.72;84.17;99672.30;124917;1307;114905;-65
2023/07/30 03:09:02;;;;;;;5.70;3.50;;;;;;;14.71;84.32;99674.59;125302;1310;115089;-66
2023/07/30 03:13:03;;;;;;;6.00;3.10;;;;;;;14.70;84.62;99677.14;124835;1312;129637;-68
2023/07/30 03:17:05;;;;;;;8.30;3.60;;;;;;;14.71;84.48;99678.73;123837;1334;117121;-68
2023/07/30 03:25:34;;;;;;;10.30;3.40;;;;;;;14.76;84.86;99674.70;126279;1297;639807;-65
2023/07/30 03:29:37;;;;;;;5.60;3.10;;;;;;;14.80;85.04;99674.95;128316;1274;126959;-69
2023/07/30 03:37:47;;;;;;;4.60;3.00;;;;;;;14.92;85.55;99669.55;125238;1283;5444373;-66
2023/07/30 03:41:49;;;;;;;7.50;3.50;;;;;;;14.98;85.58;99661.66;126010;1305;114926;-67
2023/07/30 03:54:16;;;;;;;5.80;3.20;;;;;;;15.24;85.67;99664.50;126083;1298;636125;-68
2023/07/30 03:58:19;;;;;;;10.50;4.00;;;;;;;15.32;85.77;99665.13;128896;1275;129159;-66
2023/07/30 04:02:21;;;;;;;4.90;3.20;;;;;;;15.42;86.10;99668.83;127415;1286;116440;-67
2023/07/30 04:10:25;;;;;;;6.60;3.50;;;;;;;15.62;86.03;99669.76;125252;1323;115071;-66
2023/07/30 04:22:52;;;;;;;12.00;3.60;;;;;;;15.88;85.85;99677.09;127710;1284;127968;-66
2023/07/30 04:31:01;;;;;;;7.10;3.30;;;;;;;16.00;85.68;99679.38;122247;1295;5508992;-66
2023/07/30 04:39:04;;;;;;;6.40;4.00;;;;;;;16.12;85.82;99684.86;124987;1311;115238;-66
2023/07/30 04:43:05;;;;;;;15.80;4.50;;;;;;;16.20;85.74;99685.94;123967;1314;116551;-66
2023/07/30 04:51:29;;;;;;;6.80;3.20;;;;;;;16.58;86.33;99685.33;126420;1294;635751;-65
2023/07/30 04:55:32;;;;;;;15.00;3.60;;;;;;;17.55;88.39;99683.16;128208;1279;129065;-67
2023/07/30 04:59:24;;;;;;;;;;;;;;;;;;;;;
2023/07/30 05:03:28;;;;;;;10.00;3.00;;;;;;;20.30;85.50;99686.55;123095;1309;5450871;-65
2023/07/30 05:07:36;;;;;;;6.30;2.60;;;;;;;21.29;82.96;99687.92;127144;1289;114761;-68
2023/07/30 05:11:43;;;;;;;8.60;3.10;;;;;;;21.82;80.62;99684.02;126329;1311;114809;-66
2023/07/30 05:15:45;;;;;;;5.60;2.50;;;;;;;22.23;79.21;99686.95;125534;1307;129953;-68
2023/07/30 05:19:46;;;;;;;7.80;2.60;;;;;;;22.52;77.81;99681.44;125145;1307;116624;-67
2023/07/30 05:23:47;;;;;;;5.00;2.70;;;;;;;22.72;76.74;99684.17;124335;1316;114902;-66
2023/07/30 05:31:51;;;;;;;;;;;;;;;;;;;;;
2023/07/30 05:35:26;;;;;;;;;;;;;;;;;;;;;
2023/07/30 05:39:30;;;;;;;6.90;2.80;;;;;;;23.07;73.88;99673.62;129350;1288;114717;-68
2023/07/30 05:43:04;;;;;;;7.70;3.00;;;;;;;23.07;73.12;99667.02;128349;1284;114897;-68
2023/07/30 05:46:16;;;;;;;7.70;2.70;;;;;;;23.11;72.70;99664.58;124245;1284;114777;-68
2023/07/30 05:49:48;;;;;;;3.20;1.80;;;;;;;23.24;72.45;99669.35;127593;1287;114809;-67
2023/07/30 05:53:15;;;;;;;;;;;;;;;;;;;;;
2023/07/30 05:57:09;;;;;;;4.50;2.30;;;;;;;23.62;71.37;99678.47;127009;1281;129916;-67
2023/07/30 06:05:14;;;;;;;4.20;2.30;;;;;;;24.29;70.26;99687.96;126216;1315;115272;-67
2023/07/30 06:09:14;;;;;;;4.50;2.50;;;;;;;24.59;69.43;99688.07;126246;1297;114727;-66
2023/07/30 06:13:16;;;;;;;4.20;2.50;;;;;;;24.82;68.31;99692.33;125932;1315;114753;-66
2023/07/30 06:17:08;;;;;;;6.40;2.60;;;;;;;25.04;67.59;99698.52;125855;1302;121083;-67
2023/07/30 06:29:03;;;;;;;5.70;2.30;;;;;;;25.74;64.80;99708.27;125692;1305;115240;-67
2023/07/30 06:33:04;;;;;;;7.70;2.90;;;;;;;26.05;64.36;99712.52;125100;1327;114870;-66
2023/07/30 06:36:40;;;;;;;;;;;;;;;;;;;;;
2023/07/30 06:40:10;;;;;;;;;;;;;;;;;;;;;
2023/07/30 06:44:12;;;;;;;4.50;2.30;;;;;;;27.35;62.01;99718.17;125652;1304;114981;-67
2023/07/30 06:48:15;;;;;;;6.70;2.60;;;;;;;27.81;60.92;99716.31;125667;1310;114974;-67
2023/07/30 06:52:14;;;;;;;4.30;2.30;;;;;;;28.19;59.80;99721.12;125026;1305;115580;-67
2023/07/30 07:01:01;;;;;;;9.50;2.70;;;;;;;28.69;58.24;99714.58;126468;1298;644946;-68
2023/07/30 07:04:24;;;;;;;5.50;2.80;;;;;;;28.98;57.26;99713.77;128398;1278;120059;-67
2023/07/30 07:08:27;;;;;;;6.80;3.00;;;;;;;29.16;56.61;99713.38;127951;1276;114755;-68
2023/07/30 07:12:21;;;;;;;4.20;2.40;;;;;;;29.29;55.66;99711.11;124831;1290;5483158;-66
2023/07/30 07:16:18;;;;;;;;;;;;;;;;;;;;;
2023/07/30 07:20:19;;;;;;;6.60;2.40;;;;;;;29.75;54.65;99716.69;125727;1307;114802;-65
2023/07/30 07:24:20;;;;;;;3.10;2.00;;;;;;;30.07;53.69;99718.17;125079;1307;119264;-67
2023/07/30 07:36:49;;;;;;;5.20;2.20;;;;;;;31.07;51.24;99727.76;128524;1279;120298;-67
2023/07/30 07:40:40;;;;;;;;;;;;;;;;;;;;;
2023/07/30 07:44:45;;;;;;;7.50;2.40;;;;;;;31.20;49.25;99727.33;123274;1287;5432398;-67
2023/07/30 07:48:45;;;;;;;4.40;2.90;;;;;;;31.25;49.38;99725.55;125508;1307;114882;-67
2023/07/30 07:52:06;;;;;;;6.10;2.30;;;;;;;31.45;49.15;99721.01;124688;1307;114984;-66
2023/07/30 07:59:48;;;;;;;5.00;2.40;;;;;;;31.89;47.82;99712.98;126481;1294;635650;-66
2023/07/30 08:03:20;;;;;;;;;;;;;;;;;;;;;
2023/07/30 08:07:35;;;;;;;;;;;;;;;;;;;;;
2023/07/30 08:11:28;;;;;;;5.00;2.30;;;;;;;32.10;46.69;99716.20;128322;1281;115002;-67
2023/07/30 08:14:55;;;;;;;6.80;2.50;;;;;;;32.19;46.46;99716.85;123509;1292;114932;-67
2023/07/30 08:18:38;;;;;;;3.60;2.50;;;;;;;32.37;46.12;99719.75;127358;1289;114872;-67
2023/07/30 08:22:43;;;;;;;2.20;2.00;;;;;;;32.42;45.27;99718.19;127104;1290;115070;-66
2023/07/30 08:30:46;;;;;;;4.30;2.50;;;;;;;32.63;44.83;99714.60;125559;1307;114911;-66
2023/07/30 08:34:26;;;;;;;;;;;;;;;;;;;;;
2023/07/30 08:47:00;;;;;;;4.10;1.90;;;;;;;32.84;43.97;99712.36;126576;1295;639976;-67
2023/07/30 08:51:03;;;;;;;6.30;2.10;;;;;;;32.88;43.39;99716.59;128710;1278;120418;-66
2023/07/30 08:55:06;;;;;;;4.10;2.10;;;;;;;32.93;42.67;99716.81;128487;1275;114842;-67
2023/07/30 08:58:57;;;;;;;;;;;;;;;;;;;;;
2023/07/30 09:02:44;;;;;;;3.00;2.20;;;;;;;32.87;42.18;99713.74;126089;1299;114973;-66
2023/07/30 09:06:45;;;;;;;4.40;1.90;;;;;;;32.65;41.83;99713.85;126170;1299;114855;-67
2023/07/30 09:14:28;;;;;;;3.50;1.90;;;;;;;32.13;41.88;99706.10;125618;1315;119330;-66
2023/07/30 09:18:29;;;;;;;4.00;2.10;;;;;;;31.98;41.79;99705.27;124990;1313;114869;-66
2023/07/30 09:22:33;;;;;;;5.30;2.10;;;;;;;31.77;41.75;99701.77;124286;1323;114975;-68
2023/07/30 09:34:30;;;;;;;3.60;2.00;;;;;;;31.46;42.15;99695.06;126376;1297;635354;-66
2023/07/30 09:38:32;;;;;;;4.70;2.00;;;;;;;31.29;42.17;99693.70;129001;1274;121501;-69
2023/07/30 09:42:37;;;;;;;2.10;1.90;;;;;;;31.09;42.02;99698.77;128783;1285;114846;-66
2023/07/30 09:46:06;;;;;;;2.50;1.90;;;;;;;30.80;41.74;99693.48;124839;1285;5418605;-61
2023/07/30 09:50:08;;;;;;;5.10;2.20;;;;;;;30.66;42.52;99692.70;127816;1300;114923;-63
2023/07/30 09:58:14;;;;;;;;;;;;;;;;;;;;;
2023/07/30 10:10:49;;;;;;;2.70;2.00;;;;;;;30.68;42.91;99680.27;125790;1295;635244;-60
2023/07/30 10:14:39;;;;;;;;;;;;;;;;;;;;;
2023/07/30 10:18:43;;;;;;;2.80;1.90;;;;;;;30.77;42.18;99675.23;126500;1301;114932;-62
2023/07/30 10:22:53;;;;;;;2.20;1.80;;;;;;;30.75;42.19;99676.23;122085;1298;5469109;-61
2023/07/30 10:26:57;;;;;;;2.40;1.90;;;;;;;30.57;41.88;99668.93;125485;1319;114783;-62
2023/07/30 10:31:03;;;;;;;3.00;2.10;;;;;;;30.34;41.86;99673.37;125210;1302;115221;-60
2023/07/30 10:34:47;;;;;;;4.70;2.00;;;;;;;30.16;41.88;99673.48;125257;1324;114852;-61
2023/07/30 10:47:14;;;;;;;3.40;2.00;;;;;;;30.16;41.90;99668.93;126247;1292;635217;-63
2023/07/30 10:51:17;;;;;;;3.90;1.70;;;;;;;30.03;42.07;99669.70;127908;1278;128774;-61
2023/07/30 10:54:47;;;;;;;5.60;3.00;;;;;;;29.87;43.24;99685.35;126701;1290;114861;-63
2023/07/30 10:58:41;;;;;;;9.40;4.30;;;;;;;29.57;45.23;99686.42;126780;1308;114853;-62
2023/07/30 11:02:32;;;;;;;;;;;;;;;;;;;;;
2023/07/30 11:06:37;;;;;;;5.90;3.00;;;;;;;28.72;48.41;99671.58;125399;1304;114885;-62
2023/07/30 11:10:41;;;;;;;6.00;2.90;;;;;;;28.42;48.58;99664.44;125374;1299;115012;-62
2023/07/30 11:14:42;;;;;;;3.70;2.70;;;;;;;28.32;49.33;99657.98;125469;1322;120914;-61
2023/07/30 11:18:43;;;;;;;2.80;2.10;;;;;;;28.27;49.92;99650.60;124667;1310;114996;-61
2023/07/30 11:26:55;;;;;;;2.60;2.40;;;;;;;28.30;50.07;99647.93;125710;1298;636077;-62
2023/07/30 11:31:00;;;;;;;3.40;2.40;;;;;;;28.34;50.71;99644.77;127965;1281;119130;-62
2023/07/30 11:34:51;;;;;;;;;;;;;;;;;;;;;
2023/07/30 11:38:53;;;;;;;;;;;;;;;;;;;;;
2023/07/30 11:42:34;;;;;;;;;;;;;;;;;;;;;
2023/07/30 11:46:29;;;;;;;3.60;1.90;;;;;;;28.82;50.12;99642.66;124258;1310;114964;-63
2023/07/30 11:50:37;;;;;;;2.10;1.80;;;;;;;29.03;50.20;99639.98;124756;1310;115221;-61
2023/07/30 11:58:48;;;;;;;3.20;2.30;;;;;;;29.50;50.35;99635.88;126183;1297;636159;-62
2023/07/30 12:02:51;;;;;;;2.10;1.80;;;;;;;29.53;50.11;99639.10;128603;1284;120109;-63
2023/07/30 12:06:43;;;;;;;2.90;1.50;;;;;;;29.49;49.98;99647.55;127181;1301;115471;-64
2023/07/30 12:14:53;;;;;;;1.80;1.50;;;;;;;29.11;48.50;99665.38;122589;1305;114976;-61
2023/07/30 12:18:53;;;;;;;3.00;1.60;;;;;;;28.76;48.18;99667.51;124759;1310;114982;-61
2023/07/30 12:22:48;;;;;;;;;;;;;;;;;;;;;
2023/07/30 12:31:15;;;;;;;4.30;2.10;;;;;;;27.60;49.26;99650.71;126014;1308;635842;-65
2023/07/30 12:34:45;;;;;;;4.10;2.20;;;;;;;27.38;49.95;99649.06;128249;1280;120235;-65
2023/07/30 12:38:28;;;;;;;2.50;2.30;;;;;;;27.21;50.33;99639.09;128322;1277;115344;-63
2023/07/30 12:42:29;;;;;;;;;;;;;;;;;;;;;
2023/07/30 12:46:33;;;;;;;4.80;1.90;;;;;;;27.14;51.28;99638.27;123520;1300;114927;-64
2023/07/30 12:50:39;;;;;;;2.30;2.10;;;;;;;27.19;51.36;99636.45;127276;1299;114911;-66
2023/07/30 12:54:44;;;;;;;;;;;;;;;;;;;;;
2023/07/30 12:58:38;;;;;;;4.80;3.80;;;;;;;27.38;51.46;99634.45;125709;1305;119220;-66
2023/07/30 13:02:39;;;;;;;;;;;;;;;;;;;;;
2023/07/30 13:11:03;;;;;;;2.00;1.80;;;;;;;27.32;50.35;99622.02;125646;1300;635232;-66
2023/07/30 13:14:40;;;;;;;2.60;2.00;;;;;;;27.27;50.80;99621.19;127542;1286;120045;-65
2023/07/30 13:26:46;;;;;;;2.00;1.80;;;;;;;27.23;50.00;99606.18;120686;1312;114990;-65
2023/07/30 13:35:05;;;;;;;;;;;;;;;;;;;;;
2023/07/30 13:39:09;;;;;;;2.20;2.00;;;;;;;27.20;49.79;99599.10;127983;1282;121255;-67
2023/07/30 13:43:11;;;;;;;1.60;1.50;;;;;;;27.00;49.89;99600.20;127728;1286;114923;-65
2023/07/30 13:47:17;;;;;;;;;;;;;;;;;;;;;
2023/07/30 13:50:51;;;;;;;1.50;1.40;;;;;;;26.67;50.52;99613.20;125203;1323;114922;-63
2023/07/30 13:54:53;;;;;;;1.80;1.60;;;;;;;26.63;50.56;99614.52;125299;1317;115391;-65
2023/07/30 13:58:39;;;;;;;3.10;2.00;;;;;;;26.51;50.28;99611.04;124583;1314;119943;-65
2023/07/30 14:02:27;;;;;;;2.40;2.20;;;;;;;26.39;50.74;99613.10;124361;1316;115004;-65
2023/07/30 14:06:01;;;;;;;3.30;2.20;;;;;;;26.33;50.88;99607.25;124938;1310;114914;-64
2023/07/30 14:09:35;;;;;;;;;;;;;;;;;;;;;
2023/07/30 14:13:29;;;;;;;;;;;;;;;;;;;;;
2023/07/30 14:17:29;;;;;;;;;;;;;;;;;;;;;
2023/07/30 14:20:45;;;;;;;2.70;2.50;;;;;;;26.29;51.48;99569.31;124679;1312;114980;-65
2023/07/30 14:24:09;;;;;;;2.90;2.30;;;;;;;26.30;51.62;99578.20;125893;1296;114915;-64
2023/07/30 14:27:52;;;;;;;3.20;2.20;;;;;;;26.35;51.49;99589.44;126562;1296;114865;-66
2023/07/30 14:31:53;;;;;;;3.10;2.20;;;;;;;26.36;51.24;99594.42;126517;1302;114841;-64
2023/07/30 14:35:44;;;;;;;3.40;2.20;;;;;;;26.33;50.91;99610.83;127277;1292;119798;-65
2023/07/30 14:39:29;;;;;;;;;;;;;;;;;;;;;
2023/07/30 14:43:13;;;;;;;6.10;2.10;;;;;;;26.20;51.15;99603.78;126233;1295;114765;-67
2023/07/30 14:47:15;;;;;;;2.40;2.20;;;;;;;26.13;51.19;99596.72;126117;1303;114906;-66
2023/07/30 14:50:59;;;;;;;3.60;2.40;;;;;;;26.06;51.50;99600.19;125687;1314;114969;-66
2023/07/30 14:54:44;;;;;;;2.50;2.30;;;;;;;26.04;52.03;99614.91;126092;1308;120603;-65
2023/07/30 14:59:01;;;;;;;2.90;2.30;;;;;;;25.99;52.11;99627.30;126112;1289;114977;-66
2023/07/30 15:02:52;;;;;;;;;;;;;;;;;;;;;
2023/07/30 15:06:55;;;;;;;2.60;2.30;;;;;;;25.77;51.82;99628.44;127682;1300;117067;-64
2023/07/30 15:10:46;;;;;;;2.70;2.40;;;;;;;25.63;51.61;99636.51;125342;1298;114961;-64
2023/07/30 15:14:25;;;;;;;;;;;;;;;;;;;;;
2023/07/30 15:18:20;;;;;;;2.90;1.20;;;;;;;25.31;51.81;99667.30;125668;1303;115045;-63
2023/07/30 15:26:22;;;;;;;2.10;1.30;;;;;;;24.67;51.52;99696.08;126127;1313;114843;-63
2023/07/30 15:30:24;;;;;;;2.80;1.10;;;;;;;24.29;52.24;99682.55;125817;1298;115095;-68
2023/07/30 15:34:24;;;;;;;3.00;1.70;;;;;;;23.93;53.64;99663.33;125534;1304;128467;-63
2023/07/30 15:38:25;;;;;;;3.30;2.00;;;;;;;23.65;55.60;99652.65;125450;1316;114955;-63
2023/07/30 15:42:06;;;;;;;3.00;1.90;;;;;;;23.42;56.70;99650.89;125448;1319;114887;-62
2023/07/30 15:46:01;;;;;;;;;;;;;;;;;;;;;
2023/07/30 15:54:07;;;;;;;;;;;;;;;;;;;;;
2023/07/30 15:57:52;;;;;;;;;;;;;;;22.45;60.40;99640.34;129052;1269;129016;-63
2023/07/30 16:01:54;;;;;;;5.60;3.20;;;;;;;22.22;61.19;99640.65;129178;1267;115191;-62
2023/07/30 16:05:54;;;;;;;;;;;;;;;;;;;;;
2023/07/30 16:09:57;;;;;;;4.30;3.00;;;;;;;21.86;62.43;99632.59;122623;1310;114972;-62
2023/07/30 16:13:48;;;;;;;;;;;;;;;;;;;;;
2023/07/30 16:17:43;;;;;;;3.10;2.70;;;;;;;21.61;63.77;99624.36;125126;1323;114821;-62
2023/07/30 16:21:47;;;;;;;5.40;3.10;;;;;;;21.52;64.33;99625.63;125273;1304;128770;-63
2023/07/30 16:25:44;;;;;;;5.50;2.50;;;;;;;21.45;64.86;99629.31;125303;1312;115238;-70
2023/07/30 16:29:45;;;;;;;3.70;2.60;;;;;;;21.41;65.22;99637.00;124946;1310;114856;-61
2023/07/30 16:37:51;;;;;;;4.00;2.80;;;;;;;21.48;66.06;99642.98;126170;1298;637017;-64
2023/07/30 16:41:52;;;;;;;;;;;;;;;;;;;;;
2023/07/30 16:45:54;;;;;;;3.30;2.80;;;;;;;21.47;66.72;99640.70;127622;1284;115192;-63
2023/07/30 16:49:53;;;;;;;;;;;;;;;;;;;;;
2023/07/30 16:53:55;;;;;;;;;;;;;;;;;;;;;
2023/07/30 16:57:47;;;;;;;3.00;2.70;;;;;;;21.37;67.02;99655.85;124695;1310;129715;-63
2023/07/30 17:01:26;;;;;;;;;;;;;;;;;;;;;
2023/07/30 17:05:10;;;;;;;;;;;;;;;;;;;;;
2023/07/30 17:13:37;;;;;;;5.60;3.10;;;;;;;21.57;68.53;99660.10;125989;1306;638450;-62
2023/07/30 17:21:30;;;;;;;;;;;;;;;;;;;;;
2023/07/30 17:25:34;;;;;;;4.30;2.90;;;;;;;21.38;68.55;99663.89;122709;1313;5408121;-76
2023/07/30 17:29:36;;;;;;;4.80;2.90;;;;;;;21.29;68.79;99669.29;125583;1307;114898;-70
2023/07/30 17:33:35;;;;;;;;;;;;;;;;;;;;;
2023/07/30 17:38:09;;;;;;;9.50;8.70;;;;;;;21.07;69.07;99665.37;126001;1299;638615;-74
2023/07/30 17:42:11;;;;;;;8.80;7.90;;;;;;;21.01;69.59;99666.05;127741;1283;128647;-73
2023/07/30 17:46:03;;;;;;;;;;;;;;;;;;;;;
2023/07/30 17:50:03;;;;;;;4.30;3.30;;;;;;;20.85;69.39;99666.20;122800;1296;5436272;-78
2023/07/30 17:53:43;;;;;;;4.20;2.70;;;;;;;20.74;69.69;99680.14;126110;1298;114849;-76
2023/07/30 17:57:18;;;;;;;;;;;;;;;;;;;;;
2023/07/30 18:00:53;;;;;;;;;;;;;;;;;;;;;
2023/07/30 18:04:35;;;;;;;1.90;1.40;;;;;;;20.50;70.58;99689.50;125275;1326;129752;-62
2023/07/30 18:08:26;;;;;;;4.80;2.90;;;;;;;20.43;70.80;99686.89;124886;1327;115319;-65
2023/07/30 18:16:52;;;;;;;6.30;3.40;;;;;;;20.30;71.35;99701.65;125923;1306;635846;-62
2023/07/30 18:20:56;;;;;;;5.40;4.20;;;;;;;20.22;71.78;99704.05;129110;1267;128386;-63
2023/07/30 18:25:01;;;;;;;5.60;3.00;;;;;;;20.15;71.72;99707.42;128515;1277;115237;-65
2023/07/30 18:28:54;;;;;;;5.80;2.70;;;;;;;20.09;72.00;99717.85;123405;1281;5432085;-65
2023/07/30 18:33:31;;;;;;;6.20;3.40;;;;;;;20.00;71.87;99721.05;126215;1295;635958;-61
2023/07/30 18:37:24;;;;;;;5.20;3.40;;;;;;;19.89;72.16;99731.55;128857;1278;127979;-63
2023/07/30 18:41:27;;;;;;;3.10;2.70;;;;;;;19.82;72.14;99736.77;128219;1287;115397;-63
2023/07/30 18:45:29;;;;;;;4.40;2.60;;;;;;;19.75;72.47;99737.23;122035;1312;5425263;-63
2023/07/30 18:49:30;;;;;;;5.90;2.80;;;;;;;19.69;72.88;99743.23;125191;1307;115344;-64
2023/07/30 18:57:56;;;;;;;5.10;3.70;;;;;;;19.51;73.69;99764.77;126182;1292;635753;-64
2023/07/30 19:01:32;;;;;;;;;;;;;;;;;;;;;
2023/07/30 19:09:38;;;;;;;3.10;2.80;;;;;;;19.34;74.95;99793.93;127723;1296;114935;-63
2023/07/30 19:13:36;;;;;;;;;;;;;;;;;;;;;
2023/07/30 19:17:38;;;;;;;4.20;2.70;;;;;;;19.28;75.29;99788.80;126663;1290;114778;-62
2023/07/30 19:21:40;;;;;;;3.10;2.80;;;;;;;19.25;75.08;99793.07;125911;1308;115019;-62
2023/07/30 19:25:29;;;;;;;8.60;2.70;;;;;;;19.22;75.28;99790.27;125494;1304;129797;-64
2023/07/30 19:33:47;;;;;;;3.90;2.80;;;;;;;19.24;75.87;99814.38;125982;1298;636405;-64
2023/07/30 19:37:50;;;;;;;4.90;3.30;;;;;;;19.22;76.02;99825.20;128897;1273;128557;-66
2023/07/30 19:41:53;;;;;;;5.70;3.30;;;;;;;19.20;76.14;99830.63;128512;1273;115248;-65
2023/07/30 19:45:56;;;;;;;4.20;3.20;;;;;;;19.15;76.25;99831.47;123975;1298;5420103;-64
2023/07/30 19:49:46;;;;;;;3.50;3.00;;;;;;;19.08;76.26;99829.93;126853;1288;114830;-62
2023/07/30 19:53:53;;;;;;;3.60;3.00;;;;;;;19.01;76.39;99829.58;126656;1301;114833;-63
2023/07/30 19:57:54;;;;;;;3.00;2.20;;;;;;;18.91;76.31;99830.38;126194;1313;114957;-66
2023/07/30 20:06:21;;;;;;;3.90;3.40;;;;;;;18.85;76.54;99818.87;125734;1307;636193;-65
2023/07/30 20:10:23;;;;;;;4.90;3.10;;;;;;;18.78;76.54;99820.89;128098;1288;128731;-64
2023/07/30 20:14:31;;;;;;;3.90;2.40;;;;;;;18.71;76.54;99814.86;127476;1303;115432;-65
2023/07/30 20:18:32;;;;;;;4.20;2.60;;;;;;;18.64;76.39;99807.19;122825;1290;5321065;-66
2023/07/30 20:22:32;;;;;;;7.30;2.50;;;;;;;18.58;76.60;99811.38;126051;1313;114816;-64
2023/07/30 20:34:59;;;;;;;3.40;2.40;;;;;;;18.36;76.61;99812.92;127215;1281;128758;-73
2023/07/30 20:43:03;;;;;;;4.70;2.00;;;;;;;18.23;76.83;99820.65;123224;1288;5473169;-72
2023/07/30 20:47:10;;;;;;;3.40;2.50;;;;;;;18.18;76.88;99830.08;125572;1303;114809;-67
2023/07/30 20:55:25;;;;;;;2.80;2.30;;;;;;;18.11;77.24;99831.66;125799;1311;638416;-73
2023/07/30 20:59:28;;;;;;;;;;;;;;;;;;;;;
2023/07/30 21:03:32;;;;;;;3.00;2.30;;;;;;;18.07;77.72;99827.65;127821;1284;115298;-71
2023/07/30 21:07:36;;;;;;;5.00;2.30;;;;;;;18.05;77.80;99833.91;122839;1301;5515153;-73
2023/07/30 21:11:34;;;;;;;;;;;;;;;;;;;;;
2023/07/30 21:15:37;;;;;;;5.60;2.40;;;;;;;17.99;78.00;99850.75;124344;1328;115069;-68
2023/07/30 21:23:42;;;;;;;4.40;2.40;;;;;;;17.96;78.26;99856.77;126622;1294;636584;-75
2023/07/30 21:27:44;;;;;;;2.80;1.80;;;;;;;17.91;78.42;99861.30;129447;1270;128214;-66
2023/07/30 21:31:41;;;;;;;3.40;2.30;;;;;;;17.88;78.35;99862.85;127562;1302;115371;-70
2023/07/30 21:35:22;;;;;;;;;;;;;;;;;;;;;
2023/07/30 21:43:27;;;;;;;5.70;2.10;;;;;;;17.74;78.52;99872.04;125302;1306;115009;-65
2023/07/30 21:47:20;;;;;;;;;;;;;;;;;;;;;
2023/07/30 21:55:45;;;;;;;4.10;1.80;;;;;;;17.70;78.83;99883.95;126685;1295;635901;-73
2023/07/30 21:59:48;;;;;;;4.90;1.50;;;;;;;17.66;79.01;99894.57;128538;1286;128282;-69
2023/07/30 22:03:40;;;;;;;2.50;1.60;;;;;;;17.63;79.23;99901.70;127198;1290;115220;-67
2023/07/30 22:07:41;;;;;;;4.40;1.70;;;;;;;17.58;79.20;99904.78;122246;1314;5442026;-70
2023/07/30 22:19:57;;;;;;;3.40;1.80;;;;;;;17.50;79.72;99908.42;126251;1300;636174;-74
2023/07/30 22:23:57;;;;;;;;;;;;;;;;;;;;;
2023/07/30 22:27:59;;;;;;;;;;;;;;;;;;;;;
2023/07/30 22:32:01;;;;;;;2.40;1.60;;;;;;;17.40;80.05;99903.46;121814;1322;5451187;-72
2023/07/30 22:40:24;;;;;;;4.40;1.70;;;;;;;17.35;80.25;99906.45;126281;1295;636121;-65
2023/07/30 22:44:20;;;;;;;4.10;2.00;;;;;;;17.29;80.44;99901.87;127655;1289;127977;-68
2023/07/30 22:48:22;;;;;;;6.00;2.30;;;;;;;17.24;80.54;99893.27;128445;1277;114819;-68
2023/07/30 22:52:24;;;;;;;8.30;3.00;;;;;;;17.19;80.67;99889.91;123259;1286;5614255;-71
2023/07/30 22:56:22;;;;;;;;;;;;;;;;;;;;;
2023/07/30 23:00:17;;;;;;;10.10;3.40;;;;;;;17.11;81.16;99886.05;125403;1301;114942;-71
2023/07/30 23:04:18;;;;;;;3.80;1.90;;;;;;;17.08;81.16;99892.35;125885;1312;128131;-71
2023/07/30 23:08:20;;;;;;;4.20;2.30;;;;;;;17.08;81.31;99900.00;124484;1315;115394;-71
2023/07/30 23:12:21;;;;;;;4.40;2.20;;;;;;;17.06;81.34;99904.52;124626;1320;114948;-73
2023/07/30 23:24:51;;;;;;;3.90;2.20;;;;;;;17.01;81.90;99907.06;127827;1281;127952;-70
2023/07/30 23:28:57;;;;;;;4.00;2.50;;;;;;;17.01;81.84;99913.20;126945;1289;114995;-68
2023/07/30 23:32:59;;;;;;;4.40;3.20;;;;;;;17.01;81.87;99917.84;122361;1299;5527342;-68
2023/07/30 23:41:23;;;;;;;5.30;3.50;;;;;;;17.05;81.94;99910.16;126472;1301;635603;-66
2023/07/30 23:45:26;;;;;;;7.00;2.80;;;;;;;17.04;82.04;99912.60;128872;1277;128179;-68
2023/07/30 23:49:28;;;;;;;3.90;2.30;;;;;;;17.00;81.93;99911.79;128015;1282;115238;-66
2023/07/30 23:57:37;;;;;;;6.30;2.70;;;;;;;16.97;82.08;99911.73;125824;1306;114833;-68
